createdAt,value
2023-01-17T00:02:24.609Z,3.53
2023-01-17T00:05:10.296Z,3.22
2023-01-17T00:07:56.167Z,2.90
2023-01-17T00:10:26.789Z,2.65
2023-01-17T00:12:57.530Z,2.60
2023-01-17T00:15:26.786Z,2.60
2023-01-17T00:17:54.270Z,2.17
2023-01-17T00:20:50.637Z,2.28
2023-01-17T00:23:40.395Z,2.22
2023-01-17T00:26:12.919Z,1.88
2023-01-17T00:28:42.955Z,1.73
2023-01-17T00:31:11.682Z,1.88
2023-01-17T00:33:39.233Z,1.60
2023-01-17T00:36:07.576Z,1.88
2023-01-17T00:38:37.825Z,1.63
2023-01-17T00:41:06.603Z,1.60
2023-01-17T00:43:52.462Z,1.85
2023-01-17T00:46:38.784Z,1.75
2023-01-17T00:49:25.445Z,1.85
2023-01-17T00:52:11.490Z,1.85
2023-01-17T00:54:57.339Z,2.28
2023-01-17T00:57:43.273Z,1.98
2023-01-17T01:00:29.613Z,1.65
2023-01-17T01:03:15.427Z,1.90
2023-01-17T01:06:01.179Z,2.08
2023-01-17T01:11:48.443Z,1.83
2023-01-17T01:14:34.540Z,1.83
2023-01-17T01:17:20.421Z,1.80
2023-01-17T01:20:08.941Z,1.60
2023-01-17T01:22:54.668Z,1.60
2023-01-17T01:25:42.375Z,1.70
2023-01-17T01:28:31.101Z,1.95
2023-01-17T01:31:24.370Z,1.90
2023-01-17T01:33:53.351Z,1.80
2023-01-17T01:36:21.358Z,2.25
2023-01-17T01:38:50.469Z,2.30
2023-01-17T01:41:17.969Z,1.80
2023-01-17T01:43:51.406Z,1.73
2023-01-17T01:46:40.270Z,1.95
2023-01-17T01:49:22.085Z,1.83
2023-01-17T01:52:02.075Z,2.10
2023-01-17T01:54:40.683Z,1.60
2023-01-17T01:57:12.201Z,1.90
2023-01-17T01:59:44.844Z,1.63
2023-01-17T02:02:12.571Z,1.80
2023-01-17T02:04:40.154Z,1.50
2023-01-17T02:07:22.128Z,1.60
2023-01-17T02:09:50.299Z,1.90
2023-01-17T02:12:20.126Z,1.80
2023-01-17T02:14:47.523Z,1.67
2023-01-17T02:17:17.555Z,1.58
2023-01-17T02:20:06.120Z,1.80
2023-01-17T02:22:54.766Z,1.98
2023-01-17T02:25:56.437Z,2.10
2023-01-17T02:28:23.771Z,1.65
2023-01-17T02:31:11.227Z,1.80
2023-01-17T02:34:00.745Z,1.90
2023-01-17T02:36:36.500Z,1.80
2023-01-17T02:39:19.615Z,1.50
2023-01-17T02:42:01.265Z,2.05
2023-01-17T02:44:28.627Z,1.80
2023-01-17T02:46:58.052Z,1.73
2023-01-17T02:49:32.083Z,1.42
2023-01-17T02:52:20.264Z,1.90
2023-01-17T02:55:07.957Z,1.90
2023-01-17T02:58:09.044Z,1.90
2023-01-17T03:00:53.734Z,1.77
2023-01-17T03:03:30.384Z,1.75
2023-01-17T03:06:15.413Z,2.00
2023-01-17T03:08:45.301Z,1.83
2023-01-17T03:11:13.692Z,1.85
2023-01-17T03:13:42.432Z,1.73
2023-01-17T03:16:21.363Z,2.28
2023-01-17T03:18:49.484Z,1.75
2023-01-17T03:21:16.937Z,2.10
2023-01-17T03:23:44.456Z,1.90
2023-01-17T03:26:11.810Z,1.88
2023-01-17T03:28:39.181Z,2.17
2023-01-17T03:31:06.550Z,1.73
2023-01-17T03:33:34.359Z,1.80
2023-01-17T03:36:01.638Z,1.63
2023-01-17T03:38:30.590Z,1.50
2023-01-17T03:40:57.949Z,1.70
2023-01-17T03:43:25.299Z,1.52
2023-01-17T03:45:54.625Z,1.67
2023-01-17T03:48:22.174Z,1.42
2023-01-17T03:50:52.201Z,1.70
2023-01-17T03:53:19.680Z,1.42
2023-01-17T03:55:47.198Z,1.65
2023-01-17T03:58:14.622Z,1.40
2023-01-17T04:00:41.970Z,1.60
2023-01-17T04:03:09.471Z,1.25
2023-01-17T04:05:36.749Z,1.40
2023-01-17T04:08:04.255Z,1.30
2023-01-17T04:10:34.350Z,1.10
2023-01-17T04:13:01.707Z,1.30
2023-01-17T04:15:29.081Z,1.20
2023-01-17T04:17:56.700Z,1.30
2023-01-17T04:20:35.547Z,1.20
2023-01-17T04:23:03.127Z,1.10
2023-01-17T04:25:31.101Z,1.05
2023-01-17T04:27:59.729Z,1.35
2023-01-17T04:30:28.400Z,1.10
2023-01-17T04:32:56.518Z,1.23
2023-01-17T04:35:24.162Z,1.30
2023-01-17T04:37:52.465Z,1.40
2023-01-17T04:40:19.815Z,1.30
2023-01-17T04:42:48.165Z,1.30
2023-01-17T04:45:15.712Z,1.40
2023-01-17T04:47:43.058Z,1.50
2023-01-17T04:50:11.191Z,1.40
2023-01-17T04:52:38.503Z,1.20
2023-01-17T04:55:06.758Z,1.30
2023-01-17T04:57:34.097Z,1.40
2023-01-17T05:00:01.381Z,1.50
2023-01-17T05:02:28.788Z,1.40
2023-01-17T05:04:56.013Z,1.20
2023-01-17T05:07:23.359Z,1.35
2023-01-17T05:09:50.552Z,1.50
2023-01-17T05:12:17.913Z,1.48
2023-01-17T05:14:45.447Z,1.25
2023-01-17T05:17:12.768Z,1.40
2023-01-17T05:19:40.020Z,1.40
2023-01-17T05:22:15.433Z,1.60
2023-01-17T05:24:48.268Z,1.50
2023-01-17T05:27:15.995Z,1.30
2023-01-17T05:29:43.396Z,1.50
2023-01-17T05:32:10.787Z,1.40
2023-01-17T05:34:38.136Z,1.67
2023-01-17T05:37:05.502Z,1.58
2023-01-17T05:39:32.824Z,1.52
2023-01-17T05:42:00.261Z,1.48
2023-01-17T05:44:27.928Z,1.50
2023-01-17T05:46:56.434Z,1.60
2023-01-17T05:49:23.868Z,1.73
2023-01-17T05:51:52.926Z,1.45
2023-01-17T05:54:22.099Z,1.85
2023-01-17T05:56:49.388Z,1.80
2023-01-17T05:59:20.573Z,1.70
2023-01-17T06:01:54.619Z,1.60
2023-01-17T06:04:22.027Z,1.80
2023-01-17T06:06:49.359Z,1.80
2023-01-17T06:09:16.632Z,1.50
2023-01-17T06:11:43.969Z,1.88
2023-01-17T06:14:11.321Z,2.15
2023-01-17T06:16:38.649Z,1.80
2023-01-17T06:19:05.853Z,2.08
2023-01-17T06:21:33.142Z,2.35
2023-01-17T06:24:01.863Z,2.15
2023-01-17T06:26:30.564Z,2.42
2023-01-17T06:28:57.803Z,1.70
2023-01-17T06:31:25.203Z,1.90
2023-01-17T06:33:52.597Z,1.88
2023-01-17T06:36:19.857Z,2.20
2023-01-17T06:38:51.280Z,1.98
2023-01-17T06:41:18.656Z,2.03
2023-01-17T06:43:45.947Z,2.20
2023-01-17T06:46:13.361Z,1.90
2023-01-17T06:48:43.713Z,2.00
2023-01-17T06:51:11.263Z,2.05
2023-01-17T06:53:38.664Z,1.90
2023-01-17T06:56:06.443Z,2.10
2023-01-17T06:58:33.750Z,2.03
2023-01-17T07:01:12.364Z,1.70
2023-01-17T07:03:43.311Z,1.80
2023-01-17T07:06:10.832Z,2.28
2023-01-17T07:08:38.177Z,2.00
2023-01-17T07:11:10.511Z,1.83
2023-01-17T07:13:38.563Z,2.13
2023-01-17T07:16:10.603Z,2.03
2023-01-17T07:18:37.999Z,2.42
2023-01-17T07:21:05.370Z,2.17
2023-01-17T07:23:32.906Z,2.40
2023-01-17T07:26:01.169Z,2.10
2023-01-17T07:28:28.840Z,2.47
2023-01-17T07:30:56.198Z,2.22
2023-01-17T07:33:23.688Z,2.40
2023-01-17T07:35:50.976Z,2.20
2023-01-17T07:38:19.984Z,2.47
2023-01-17T07:40:47.273Z,2.20
2023-01-17T07:43:14.667Z,2.15
2023-01-17T07:45:48.393Z,2.58
2023-01-17T07:48:15.955Z,1.90
2023-01-17T07:50:44.550Z,2.30
2023-01-17T07:53:11.994Z,2.20
2023-01-17T07:55:39.300Z,2.47
2023-01-17T07:58:06.611Z,2.00
2023-01-17T08:00:33.899Z,2.80
2023-01-17T08:03:01.412Z,2.58
2023-01-17T08:05:31.013Z,2.50
2023-01-17T08:07:58.361Z,2.75
2023-01-17T08:10:25.630Z,2.65
2023-01-17T08:12:53.056Z,2.85
2023-01-17T08:15:20.514Z,2.67
2023-01-17T08:17:49.605Z,2.50
2023-01-17T08:20:17.433Z,2.67
2023-01-17T08:22:44.711Z,2.72
2023-01-17T08:25:12.840Z,2.92
2023-01-17T08:27:40.433Z,3.17
2023-01-17T08:30:08.668Z,3.20
2023-01-17T08:32:36.022Z,3.28
2023-01-17T08:35:03.289Z,2.85
2023-01-17T08:37:30.657Z,3.28
2023-01-17T08:39:57.909Z,3.45
2023-01-17T08:42:25.228Z,3.65
2023-01-17T08:44:52.732Z,3.30
2023-01-17T08:47:20.057Z,2.97
2023-01-17T08:49:47.250Z,2.70
2023-01-17T08:52:14.725Z,3.30
2023-01-17T08:54:41.994Z,2.92
2023-01-17T08:57:10.556Z,3.53
2023-01-17T08:59:37.847Z,2.70
2023-01-17T09:02:14.947Z,2.75
2023-01-17T09:04:49.637Z,2.70
2023-01-17T09:07:19.417Z,2.63
2023-01-17T09:09:46.905Z,2.97
2023-01-17T09:12:14.277Z,2.90
2023-01-17T09:14:41.628Z,2.40
2023-01-17T09:17:08.929Z,2.50
2023-01-17T09:19:39.037Z,2.10
2023-01-17T09:22:06.853Z,2.38
2023-01-17T09:24:34.294Z,2.28
2023-01-17T09:27:01.855Z,1.73
2023-01-17T09:29:29.191Z,2.20
2023-01-17T09:31:56.754Z,1.90
2023-01-17T09:34:24.558Z,2.10
2023-01-17T09:36:51.862Z,1.67
2023-01-17T09:39:19.175Z,1.60
2023-01-17T09:42:12.402Z,1.77
2023-01-17T09:44:46.503Z,1.88
2023-01-17T09:47:33.441Z,1.75
2023-01-17T09:50:11.498Z,2.25
2023-01-17T09:52:38.844Z,1.60
2023-01-17T09:55:08.053Z,1.75
2023-01-17T09:58:02.042Z,1.60
2023-01-17T10:00:56.256Z,2.10
2023-01-17T10:03:41.143Z,2.13
2023-01-17T10:06:26.103Z,2.40
2023-01-17T10:09:15.099Z,2.33
2023-01-17T10:12:06.415Z,2.22
2023-01-17T10:15:03.427Z,2.72
2023-01-17T10:17:36.680Z,2.05
2023-01-17T10:20:18.490Z,2.20
2023-01-17T10:25:52.719Z,2.00
2023-01-17T10:28:49.760Z,2.25
2023-01-17T10:31:36.111Z,1.70
2023-01-17T10:34:16.263Z,1.95
2023-01-17T10:36:47.704Z,1.98
2023-01-17T10:39:24.832Z,1.50
2023-01-17T10:42:15.662Z,1.70
2023-01-17T10:45:10.445Z,1.90
2023-01-17T10:47:39.697Z,1.70
2023-01-17T10:50:11.820Z,1.92
2023-01-17T10:53:06.952Z,2.25
2023-01-17T10:55:49.051Z,1.65
2023-01-17T10:58:16.383Z,1.92
2023-01-17T11:00:46.385Z,1.90
2023-01-17T11:03:16.570Z,2.70
2023-01-17T11:05:45.726Z,2.55
2023-01-17T11:08:14.743Z,2.42
2023-01-17T11:10:43.894Z,2.05
2023-01-17T11:13:38.756Z,2.00
2023-01-17T11:16:07.697Z,1.85
2023-01-17T11:18:39.852Z,1.75
2023-01-17T11:21:24.763Z,1.80
2023-01-17T11:23:58.831Z,1.95
2023-01-17T11:26:31.854Z,2.08
2023-01-17T11:29:34.699Z,2.43
2023-01-17T11:32:21.800Z,2.28
2023-01-17T11:35:22.849Z,2.40
2023-01-17T11:38:13.915Z,2.75
2023-01-17T11:40:43.690Z,2.17
2023-01-17T11:43:24.519Z,2.30
2023-01-17T11:46:18.977Z,1.90
2023-01-17T11:51:41.521Z,2.00
2023-01-17T11:54:30.352Z,1.80
2023-01-17T11:57:01.837Z,1.50
2023-01-17T11:59:35.346Z,2.20
2023-01-17T12:02:21.651Z,1.95
2023-01-17T12:05:15.555Z,1.90
2023-01-17T12:07:42.892Z,1.98
2023-01-17T12:10:17.287Z,2.38
2023-01-17T12:13:08.821Z,2.58
2023-01-17T12:15:48.045Z,1.95
2023-01-17T12:18:43.063Z,2.05
2023-01-17T12:21:17.609Z,2.05
2023-01-17T12:24:09.518Z,2.40
2023-01-17T12:26:52.436Z,2.95
2023-01-17T12:29:38.032Z,3.47
2023-01-17T12:32:20.579Z,2.55
2023-01-17T12:35:10.067Z,2.05
2023-01-17T12:37:41.104Z,1.88
2023-01-17T12:40:27.086Z,1.90
2023-01-17T12:43:06.148Z,2.40
2023-01-17T12:45:39.910Z,2.20
2023-01-17T12:48:20.528Z,1.90
2023-01-17T12:51:29.193Z,2.40
2023-01-17T12:54:19.329Z,2.28
2023-01-17T12:56:56.780Z,2.28
2023-01-17T12:59:34.358Z,1.65
2023-01-17T13:02:12.584Z,2.63
2023-01-17T13:04:57.996Z,1.63
2023-01-17T13:07:28.975Z,1.75
2023-01-17T13:10:20.873Z,1.85
2023-01-17T13:12:50.074Z,1.40
2023-01-17T13:15:25.215Z,2.00
2023-01-17T13:18:04.829Z,2.15
2023-01-17T13:21:05.026Z,1.90
2023-01-17T13:23:54.080Z,1.45
2023-01-17T13:26:52.786Z,1.60
2023-01-17T13:29:32.815Z,1.40
2023-01-17T13:32:22.851Z,1.60
2023-01-17T13:35:02.242Z,1.75
2023-01-17T13:38:00.742Z,1.70
2023-01-17T13:41:01.800Z,1.73
2023-01-17T13:43:42.015Z,1.67
2023-01-17T13:46:09.277Z,1.83
2023-01-17T13:48:38.634Z,1.70
2023-01-17T13:51:19.952Z,1.73
2023-01-17T13:53:50.116Z,1.70
2023-01-17T13:56:20.234Z,1.90
2023-01-17T13:58:50.073Z,2.03
2023-01-17T14:01:23.470Z,1.95
2023-01-17T14:03:51.109Z,2.20
2023-01-17T14:06:40.769Z,1.90
2023-01-17T14:09:19.692Z,1.85
2023-01-17T14:11:57.711Z,1.85
2023-01-17T14:15:00.754Z,1.70
2023-01-17T14:17:34.184Z,1.90
2023-01-17T14:20:10.062Z,1.55
2023-01-17T14:22:41.936Z,1.80
2023-01-17T14:25:37.767Z,1.63
2023-01-17T14:28:21.273Z,1.90
2023-01-17T14:30:54.466Z,1.70
2023-01-17T14:33:36.278Z,1.80
2023-01-17T14:36:05.910Z,1.77
2023-01-17T14:38:35.017Z,2.05
2023-01-17T14:41:08.104Z,2.22
2023-01-17T14:43:42.536Z,1.93
2023-01-17T14:46:24.417Z,1.90
2023-01-17T14:49:00.119Z,2.20
2023-01-17T14:51:28.521Z,1.77
2023-01-17T14:54:00.410Z,1.83
2023-01-17T14:56:30.099Z,1.90
2023-01-17T14:59:06.563Z,2.28
2023-01-17T15:01:36.502Z,1.90
2023-01-17T15:04:04.385Z,1.50
2023-01-17T15:06:42.239Z,1.80
2023-01-17T15:09:32.911Z,1.90
2023-01-17T15:12:02.717Z,1.95
2023-01-17T15:14:37.186Z,2.00
2023-01-17T15:17:11.350Z,2.13
2023-01-17T15:19:44.032Z,2.17
2023-01-17T15:22:12.217Z,1.88
2023-01-17T15:24:44.865Z,2.15
2023-01-17T15:27:15.156Z,1.95
2023-01-17T15:29:43.933Z,1.92
2023-01-17T15:32:23.910Z,2.10
2023-01-17T15:34:52.539Z,1.92
2023-01-17T15:37:32.878Z,1.98
2023-01-17T15:40:22.725Z,1.70
2023-01-17T15:42:56.754Z,1.85
2023-01-17T15:45:31.018Z,1.85
2023-01-17T15:48:18.776Z,1.80
2023-01-17T15:50:47.594Z,1.85
2023-01-17T15:53:33.099Z,2.05
2023-01-17T15:56:01.083Z,2.00
2023-01-17T15:58:30.424Z,1.80
2023-01-17T16:00:58.093Z,2.00
2023-01-17T16:03:31.796Z,1.98
2023-01-17T16:06:03.166Z,2.17
2023-01-17T16:08:33.693Z,2.00
2023-01-17T16:13:47.481Z,2.05
2023-01-17T16:16:18.588Z,2.17
2023-01-17T16:18:47.192Z,2.17
2023-01-17T16:21:21.084Z,1.98
2023-01-17T16:26:15.757Z,2.10
2023-01-17T16:28:43.498Z,2.35
2023-01-17T16:31:10.825Z,2.30
2023-01-17T16:33:39.444Z,2.03
2023-01-17T16:36:07.146Z,1.95
2023-01-17T16:38:34.493Z,2.55
2023-01-17T16:41:04.348Z,2.22
2023-01-17T16:43:31.732Z,2.47
2023-01-17T16:45:59.195Z,2.20
2023-01-17T16:51:08.857Z,2.45
2023-01-17T16:53:37.094Z,2.22
2023-01-17T16:56:12.249Z,2.17
2023-01-17T16:58:40.452Z,2.70
2023-01-17T17:01:16.329Z,2.17
2023-01-17T17:03:44.475Z,2.38
2023-01-17T17:06:12.157Z,2.65
2023-01-17T17:08:40.072Z,2.97
2023-01-17T17:11:17.670Z,2.80
2023-01-17T17:13:47.813Z,2.90
2023-01-17T17:16:26.668Z,3.15
2023-01-17T17:19:06.711Z,11.27
2023-01-17T17:21:35.195Z,4.60
2023-01-17T17:24:03.033Z,2.67
2023-01-17T17:26:35.462Z,2.85
2023-01-17T17:29:05.408Z,2.90
2023-01-17T17:31:32.878Z,2.50
2023-01-17T17:34:02.495Z,2.75
2023-01-17T17:36:33.314Z,2.83
2023-01-17T17:39:03.616Z,3.00
2023-01-17T17:41:33.775Z,2.90
2023-01-17T17:44:03.273Z,2.58
2023-01-17T17:46:31.631Z,2.63
2023-01-17T17:48:59.664Z,2.97
2023-01-17T17:51:37.059Z,2.90
2023-01-17T17:54:10.045Z,2.70
2023-01-17T17:56:38.287Z,2.77
2023-01-17T17:59:08.372Z,3.00
2023-01-17T18:01:38.433Z,2.95
2023-01-17T18:04:07.725Z,2.53
2023-01-17T18:06:36.104Z,2.10
2023-01-17T18:09:04.476Z,2.35
2023-01-17T18:11:32.310Z,3.00
2023-01-17T18:14:01.801Z,2.60
2023-01-17T18:16:35.733Z,2.80
2023-01-17T18:21:37.109Z,2.25
2023-01-17T18:24:11.100Z,2.20
2023-01-17T18:26:44.110Z,2.63
2023-01-17T18:29:18.153Z,2.47
2023-01-17T18:31:46.531Z,2.95
2023-01-17T18:34:21.341Z,2.38
2023-01-17T18:36:48.709Z,2.17
2023-01-17T18:42:02.283Z,2.33
2023-01-17T18:44:30.277Z,2.85
2023-01-17T18:47:02.148Z,2.35
2023-01-17T18:49:29.738Z,2.63
2023-01-17T18:51:57.038Z,2.80
2023-01-17T18:54:24.328Z,3.08
2023-01-17T18:56:51.616Z,2.85
2023-01-17T18:59:23.600Z,2.65
2023-01-17T19:07:15.242Z,2.97
2023-01-17T19:09:44.309Z,2.53
2023-01-17T19:12:11.613Z,3.20
2023-01-17T19:14:38.935Z,2.53
2023-01-17T19:17:06.284Z,2.92
2023-01-17T19:19:33.732Z,2.90
2023-01-17T19:22:01.082Z,3.38
2023-01-17T19:27:10.901Z,3.63
2023-01-17T19:29:39.843Z,3.80
2023-01-17T19:32:09.846Z,3.30
2023-01-17T19:34:37.697Z,3.42
2023-01-17T19:37:06.279Z,3.47
2023-01-17T19:39:33.896Z,3.35
2023-01-17T19:42:01.602Z,3.63
2023-01-17T19:49:52.250Z,4.10
2023-01-17T19:52:19.808Z,4.13
2023-01-17T19:54:47.136Z,4.30
2023-01-17T19:57:14.474Z,4.45
2023-01-17T19:59:41.799Z,3.50
2023-01-17T20:02:11.744Z,3.42
2023-01-17T20:04:39.147Z,3.85
2023-01-17T20:07:06.396Z,4.13
2023-01-17T20:09:34.995Z,4.68
2023-01-17T20:12:02.800Z,3.92
2023-01-17T20:14:30.121Z,3.88
2023-01-17T20:16:57.382Z,3.97
2023-01-17T20:19:24.884Z,3.95
2023-01-17T20:21:52.159Z,3.80
2023-01-17T20:24:19.472Z,3.00
2023-01-17T20:26:47.425Z,3.58
2023-01-17T20:29:16.889Z,4.50
2023-01-17T20:31:45.556Z,3.70
2023-01-17T20:34:19.841Z,3.65
2023-01-17T20:39:29.927Z,3.90
2023-01-17T20:41:57.883Z,3.67
2023-01-17T20:44:25.828Z,4.50
2023-01-17T20:46:53.359Z,3.85
2023-01-17T20:49:21.959Z,3.92
2023-01-17T20:51:49.263Z,3.45
2023-01-17T20:54:19.109Z,3.13
2023-01-17T20:56:50.155Z,2.80
2023-01-17T20:59:21.820Z,2.58
2023-01-17T21:04:31.482Z,2.42
2023-01-17T21:06:58.826Z,2.25
2023-01-17T21:09:26.269Z,2.15
2023-01-17T21:11:54.600Z,1.70
2023-01-17T21:14:22.048Z,2.30
2023-01-17T21:16:50.702Z,2.03
2023-01-17T21:19:18.163Z,2.10
2023-01-17T21:21:45.593Z,2.08
2023-01-17T21:24:18.849Z,2.15
2023-01-17T21:26:46.999Z,1.90
2023-01-17T21:29:16.253Z,1.70
2023-01-17T21:31:44.046Z,1.83
2023-01-17T21:34:13.921Z,2.00
2023-01-17T21:36:42.557Z,1.75
2023-01-17T21:39:15.972Z,1.88
2023-01-17T21:41:45.954Z,1.60
2023-01-17T21:44:16.492Z,1.58
2023-01-17T21:46:43.928Z,2.00
2023-01-17T21:49:12.178Z,1.52
2023-01-17T21:52:03.886Z,1.40
2023-01-17T21:54:50.676Z,1.85
2023-01-17T21:57:39.290Z,1.95
2023-01-17T22:00:09.504Z,1.70
2023-01-17T22:02:40.249Z,1.90
2023-01-17T22:05:09.175Z,2.17
2023-01-17T22:07:36.625Z,1.80
2023-01-17T22:15:26.232Z,1.80
2023-01-17T22:17:53.485Z,1.85
2023-01-17T22:20:21.548Z,1.70
2023-01-17T22:22:48.896Z,1.67
2023-01-17T22:25:16.268Z,1.77
2023-01-17T22:27:43.595Z,1.70
2023-01-17T22:32:57.055Z,2.30
2023-01-17T22:35:25.165Z,2.17
2023-01-17T22:37:53.599Z,2.20
2023-01-17T22:40:21.783Z,1.98
2023-01-17T22:42:49.148Z,2.92
2023-01-17T22:45:17.545Z,2.50
2023-01-17T22:47:44.970Z,3.22
2023-01-17T22:50:13.400Z,3.53
2023-01-17T22:52:40.790Z,3.50
2023-01-17T22:55:08.403Z,3.22
2023-01-17T22:57:35.951Z,3.20
2023-01-17T23:00:14.613Z,2.80
2023-01-17T23:02:42.873Z,3.00
2023-01-17T23:05:10.229Z,2.45
2023-01-17T23:07:43.875Z,2.40
2023-01-17T23:10:38.137Z,2.90
2023-01-17T23:13:10.567Z,2.50
2023-01-17T23:15:57.062Z,2.63
2023-01-17T23:18:42.922Z,2.72
2023-01-17T23:21:10.286Z,2.45
2023-01-17T23:23:37.547Z,2.40
2023-01-17T23:26:05.178Z,2.63
2023-01-17T23:28:32.409Z,2.60
2023-01-17T23:31:06.646Z,2.72
2023-01-17T23:33:34.011Z,3.38
2023-01-17T23:36:01.686Z,3.15
2023-01-17T23:41:29.125Z,2.90
2023-01-17T23:43:58.430Z,3.00
2023-01-17T23:46:27.302Z,2.53
2023-01-17T23:48:55.340Z,2.70
2023-01-17T23:51:23.029Z,3.10
2023-01-17T23:53:53.551Z,2.72
2023-01-17T23:56:23.796Z,3.00
2023-01-17T23:58:51.130Z,2.42
